Time;durP1;ratioP1;P1;durP2;ratioP2;P2;SDS_P1;SDS_P2;PMS_P1;PMS_P2;Temp;Humidity;BMP_temperature;BMP_pressure;BME280_temperature;BME280_humidity;BME280_pressure;Samples;Min_cycle;Max_cycle;Signal;HPM_P1;HPM_P2
2021/01/28 00:00:12;;;;;;;6.22;5.30;;;4.20;99.90;;;;;;5013489;28;20231;-78
2021/01/28 00:02:38;;;;;;;5.90;5.30;;;4.20;99.70;;;;;;5014784;28;20277;-78
2021/01/28 00:05:06;;;;;;;5.60;5.10;;;4.20;99.60;;;;;;5014627;28;20286;-78
2021/01/28 00:07:33;;;;;;;5.45;4.90;;;4.20;99.70;;;;;;5021333;28;20231;-78
2021/01/28 00:10:00;;;;;;;7.75;5.65;;;4.20;99.40;;;;;;5034267;28;20199;-79
2021/01/28 00:12:26;;;;;;;6.30;5.70;;;4.20;99.30;;;;;;5034456;28;20195;-81
2021/01/28 00:14:54;;;;;;;5.65;5.15;;;4.20;99.30;;;;;;5034474;28;20690;-81
2021/01/28 00:17:20;;;;;;;5.85;5.25;;;4.20;99.30;;;;;;5034455;28;20223;-78
2021/01/28 00:19:47;;;;;;;6.25;4.90;;;4.30;99.30;;;;;;5035179;28;20214;-78
2021/01/28 00:22:13;;;;;;;4.65;4.18;;;4.20;99.10;;;;;;5037525;28;20211;-78
2021/01/28 00:24:40;;;;;;;5.15;4.65;;;4.30;99.20;;;;;;5040022;28;20207;-78
2021/01/28 00:27:06;;;;;;;4.80;4.40;;;4.30;99.10;;;;;;5040532;28;20322;-78
2021/01/28 00:29:33;;;;;;;5.57;5.07;;;4.30;99.20;;;;;;5039624;28;20266;-78
2021/01/28 00:32:00;;;;;;;5.45;4.30;;;4.40;99.10;;;;;;5045460;28;20207;-78
2021/01/28 00:34:26;;;;;;;4.70;4.20;;;4.40;98.80;;;;;;5050900;28;20211;-78
2021/01/28 00:36:53;;;;;;;6.43;4.63;;;4.30;98.70;;;;;;5054474;28;20214;-78
2021/01/28 00:39:19;;;;;;;4.65;4.22;;;4.40;98.80;;;;;;5044082;28;20294;-78
2021/01/28 00:41:46;;;;;;;5.85;4.85;;;4.40;98.80;;;;;;5036140;28;20766;-79
2021/01/28 00:44:12;;;;;;;7.05;4.20;;;4.40;98.50;;;;;;5038691;28;20236;-77
2021/01/28 00:46:40;;;;;;;4.47;4.07;;;4.40;98.50;;;;;;5046210;28;20211;-78
2021/01/28 00:49:08;;;;;;;4.60;4.20;;;4.40;98.30;;;;;;5050471;28;20240;-76
2021/01/28 00:51:34;;;;;;;4.90;4.40;;;4.40;98.40;;;;;;5051248;28;20211;-78
2021/01/28 00:54:01;;;;;;;4.25;3.85;;;4.40;98.60;;;;;;5055180;28;20199;-84
2021/01/28 00:56:27;;;;;;;4.35;3.95;;;4.40;98.60;;;;;;5058102;28;20192;-84
2021/01/28 00:58:53;;;;;;;5.22;3.85;;;4.50;98.70;;;;;;5056356;28;20231;-80
2021/01/28 01:01:20;;;;;;;4.97;4.53;;;4.40;98.60;;;;;;5038909;28;20227;-78
2021/01/28 01:03:46;;;;;;;5.20;4.70;;;4.50;98.80;;;;;;5045674;28;20279;-80
2021/01/28 01:06:14;;;;;;;5.28;4.20;;;4.50;98.70;;;;;;5051574;28;20702;-77
2021/01/28 01:08:40;;;;;;;4.22;3.90;;;4.50;98.70;;;;;;5058941;28;20231;-79
2021/01/28 01:11:09;;;;;;;4.40;3.50;;;4.50;98.60;;;;;;5057743;28;20674;-83
2021/01/28 01:13:37;;;;;;;3.45;3.15;;;4.50;98.60;;;;;;5060017;28;20187;-78
2021/01/28 01:16:05;;;;;;;4.18;3.17;;;4.50;98.60;;;;;;5050687;28;20207;-77
2021/01/28 01:18:34;;;;;;;5.72;4.13;;;4.50;98.70;;;;;;5041143;28;20592;-77
2021/01/28 01:21:02;;;;;;;3.08;2.78;;;4.60;98.90;;;;;;5053054;28;20238;-80
2021/01/28 01:23:29;;;;;;;3.70;3.22;;;4.60;98.60;;;;;;5051991;28;20218;-79
2021/01/28 01:25:58;;;;;;;3.33;2.90;;;4.60;98.60;;;;;;5050333;28;20219;-78
2021/01/28 01:28:26;;;;;;;5.03;2.65;;;4.60;98.50;;;;;;5043876;28;20219;-78
2021/01/28 01:30:52;;;;;;;2.78;2.58;;;4.70;98.40;;;;;;5044722;28;20199;-78
2021/01/28 01:33:19;;;;;;;3.00;2.80;;;4.60;98.10;;;;;;5037855;28;20294;-78
2021/01/28 01:35:46;;;;;;;2.88;2.67;;;4.70;98.10;;;;;;5041152;28;20246;-78
2021/01/28 01:38:12;;;;;;;2.40;2.15;;;4.70;98.10;;;;;;5037679;28;20227;-78
2021/01/28 01:40:43;;;;;;;2.38;2.17;;;4.70;98.10;;;;;;5038202;28;20280;-78
2021/01/28 01:43:11;;;;;;;3.03;2.60;;;4.70;98.00;;;;;;5039677;28;20207;-79
2021/01/28 01:45:42;;;;;;;2.55;2.35;;;4.70;97.90;;;;;;5049719;28;20294;-79
2021/01/28 01:48:14;;;;;;;3.70;2.30;;;4.80;97.90;;;;;;5056885;28;20287;-79
2021/01/28 01:50:47;;;;;;;1.85;1.75;;;4.80;97.80;;;;;;5056199;28;20236;-75
2021/01/28 01:53:18;;;;;;;1.88;1.77;;;4.80;97.80;;;;;;5055890;28;20213;-77
2021/01/28 01:55:50;;;;;;;2.90;2.00;;;4.80;97.80;;;;;;5055286;28;20199;-79
2021/01/28 01:58:26;;;;;;;3.60;2.42;;;4.80;97.80;;;;;;5047580;28;20227;-78
2021/01/28 02:00:53;;;;;;;2.13;2.00;;;4.80;97.90;;;;;;5041989;28;20228;-80
2021/01/28 02:03:21;;;;;;;1.90;1.80;;;4.80;98.10;;;;;;5039503;28;20203;-78
2021/01/28 02:05:57;;;;;;;1.85;1.70;;;4.80;98.30;;;;;;5041644;28;20229;-78
2021/01/28 02:08:24;;;;;;;1.67;1.58;;;4.90;98.20;;;;;;5041802;28;20761;-78
2021/01/28 02:10:52;;;;;;;4.70;1.80;;;4.90;98.40;;;;;;5043214;28;20203;-80
2021/01/28 02:13:18;;;;;;;1.80;1.70;;;4.90;98.30;;;;;;5042971;28;20230;-78
2021/01/28 02:15:44;;;;;;;1.27;1.17;;;4.90;98.40;;;;;;5041262;28;20207;-78
2021/01/28 02:18:11;;;;;;;1.40;1.30;;;4.90;98.50;;;;;;5041742;28;20257;-78
2021/01/28 02:21:02;;;;;;;1.50;1.40;;;5.00;98.60;;;;;;5039200;28;20605;-78
2021/01/28 02:23:44;;;;;;;1.67;1.20;;;5.00;98.50;;;;;;5036547;28;20310;-78
2021/01/28 02:26:12;;;;;;;1.50;1.10;;;5.00;98.60;;;;;;5052204;28;20191;-78
2021/01/28 02:28:39;;;;;;;1.50;1.40;;;5.00;98.50;;;;;;5036537;28;20609;-77
2021/01/28 02:31:07;;;;;;;1.50;1.40;;;5.00;98.60;;;;;;5036821;28;20253;-76
2021/01/28 02:33:53;;;;;;;1.63;1.50;;;5.10;98.80;;;;;;5039086;28;20219;-81
2021/01/28 02:36:28;;;;;;;2.15;1.40;;;5.00;98.80;;;;;;5044773;28;20287;-77
2021/01/28 02:38:54;;;;;;;1.50;1.40;;;5.10;99.00;;;;;;5045763;28;20230;-78
2021/01/28 02:41:22;;;;;;;1.10;1.00;;;5.10;99.20;;;;;;5037231;28;20583;-78
2021/01/28 02:43:58;;;;;;;1.27;1.25;;;5.10;99.30;;;;;;5043012;28;20287;-77
2021/01/28 02:46:26;;;;;;;5.82;1.20;;;5.10;99.30;;;;;;5045945;28;20206;-80
2021/01/28 02:48:53;;;;;;;2.10;1.25;;;5.10;99.50;;;;;;5051480;28;20254;-77
2021/01/28 02:51:22;;;;;;;1.60;1.50;;;5.10;99.70;;;;;;5054184;28;20207;-78
2021/01/28 02:53:52;;;;;;;2.17;1.70;;;5.10;99.90;;;;;;5046139;28;20241;-78
2021/01/28 02:56:21;;;;;;;1.42;1.33;;;5.10;99.90;;;;;;5053518;28;20195;-78
2021/01/28 02:58:48;;;;;;;1.40;1.30;;;5.00;99.90;;;;;;5054799;28;20242;-77
2021/01/28 03:01:16;;;;;;;1.85;1.50;;;5.10;99.90;;;;;;5051078;28;20218;-80
2021/01/28 03:03:46;;;;;;;1.15;1.10;;;5.10;99.90;;;;;;5052691;28;20199;-81
2021/01/28 03:06:13;;;;;;;1.70;1.60;;;5.00;99.90;;;;;;5055680;28;20255;-79
2021/01/28 03:08:40;;;;;;;1.30;1.20;;;5.00;99.90;;;;;;5055201;28;20233;-79
2021/01/28 03:11:06;;;;;;;1.20;1.10;;;5.00;99.90;;;;;;5052186;28;20230;-78
2021/01/28 03:13:34;;;;;;;1.60;1.50;;;5.00;99.90;;;;;;5042094;28;20281;-78
2021/01/28 03:16:01;;;;;;;1.45;1.35;;;5.00;99.90;;;;;;5043881;28;20219;-76
2021/01/28 03:18:28;;;;;;;1.63;1.52;;;5.00;99.90;;;;;;5050047;28;20231;-75
2021/01/28 03:20:55;;;;;;;1.52;1.42;;;5.00;99.90;;;;;;5053656;28;20219;-76
2021/01/28 03:23:21;;;;;;;1.40;1.30;;;5.00;99.90;;;;;;5040651;28;20199;-78
2021/01/28 03:25:48;;;;;;;1.58;1.48;;;5.00;99.90;;;;;;5046145;28;20241;-77
2021/01/28 03:28:15;;;;;;;1.35;1.25;;;5.00;99.90;;;;;;5052754;28;20227;-78
2021/01/28 03:30:46;;;;;;;1.95;1.75;;;5.00;99.90;;;;;;5053957;28;20203;-77
2021/01/28 03:33:15;;;;;;;1.73;1.63;;;5.10;99.90;;;;;;5045417;28;20683;-78
2021/01/28 03:35:42;;;;;;;1.63;1.52;;;5.00;99.90;;;;;;5043123;28;20221;-78
2021/01/28 03:38:11;;;;;;;1.55;1.45;;;5.00;99.90;;;;;;5043043;28;20223;-78
2021/01/28 03:40:39;;;;;;;1.90;1.80;;;5.10;99.90;;;;;;5044968;28;20226;-78
2021/01/28 03:43:06;;;;;;;2.13;1.95;;;5.10;99.90;;;;;;5042620;28;20203;-77
2021/01/28 03:45:33;;;;;;;1.60;1.50;;;5.10;99.90;;;;;;5049784;28;20211;-77
2021/01/28 03:48:01;;;;;;;2.13;2.03;;;5.10;99.90;;;;;;5049592;28;20242;-79
2021/01/28 03:50:30;;;;;;;2.38;2.20;;;5.10;99.90;;;;;;5043530;28;20249;-77
2021/01/28 03:52:57;;;;;;;2.25;2.05;;;5.10;99.90;;;;;;5036422;28;20667;-78
2021/01/28 03:55:23;;;;;;;2.60;2.40;;;5.10;99.90;;;;;;5037430;28;20238;-78
2021/01/28 03:57:51;;;;;;;2.65;2.42;;;5.20;99.90;;;;;;5034055;28;20247;-77
2021/01/28 04:00:20;;;;;;;2.33;2.13;;;5.20;99.90;;;;;;5036009;28;20245;-78
2021/01/28 04:02:47;;;;;;;2.55;2.28;;;5.20;99.90;;;;;;5047539;28;20229;-77
2021/01/28 04:05:16;;;;;;;2.88;2.50;;;5.10;99.90;;;;;;5053788;28;20203;-79
2021/01/28 04:07:46;;;;;;;2.30;2.10;;;5.10;99.90;;;;;;5039126;28;20661;-77
2021/01/28 04:10:15;;;;;;;2.95;2.75;;;5.10;99.90;;;;;;5035496;28;20219;-77
2021/01/28 04:12:41;;;;;;;3.40;2.70;;;5.10;99.90;;;;;;5039295;28;20203;-79
2021/01/28 04:15:11;;;;;;;2.95;2.75;;;5.10;99.90;;;;;;5053992;28;20208;-78
2021/01/28 04:17:38;;;;;;;3.15;2.92;;;5.00;99.90;;;;;;5043432;28;20210;-78
2021/01/28 04:20:07;;;;;;;4.25;3.33;;;5.00;99.90;;;;;;5050782;28;20212;-77
2021/01/28 04:22:35;;;;;;;6.20;3.55;;;5.00;99.90;;;;;;5053396;28;20207;-80
2021/01/28 04:25:02;;;;;;;3.70;3.40;;;5.10;99.90;;;;;;5047387;28;20219;-79
2021/01/28 04:27:29;;;;;;;3.63;3.33;;;5.00;99.90;;;;;;5047813;28;20285;-77
2021/01/28 04:29:56;;;;;;;3.30;3.00;;;5.00;99.90;;;;;;5048134;28;20210;-78
2021/01/28 04:32:22;;;;;;;3.67;3.10;;;5.10;99.90;;;;;;5053835;28;20211;-79
2021/01/28 04:34:49;;;;;;;3.35;3.05;;;5.10;99.90;;;;;;5040889;28;20218;-77
2021/01/28 04:37:15;;;;;;;5.10;4.10;;;5.20;99.90;;;;;;5038237;28;20214;-80
2021/01/28 04:39:43;;;;;;;3.70;3.35;;;5.20;99.90;;;;;;5041712;28;20294;-78
2021/01/28 04:42:14;;;;;;;3.80;3.40;;;5.20;99.90;;;;;;5053606;28;20231;-78
2021/01/28 04:44:41;;;;;;;3.50;3.20;;;5.10;99.90;;;;;;5046194;28;20207;-78
2021/01/28 04:47:12;;;;;;;3.80;3.40;;;5.10;99.90;;;;;;5048951;28;20222;-78
2021/01/28 04:49:39;;;;;;;3.85;3.38;;;5.10;99.90;;;;;;5040827;28;20196;-78
2021/01/28 04:52:10;;;;;;;3.72;3.42;;;5.10;99.90;;;;;;5054450;28;20210;-76
2021/01/28 04:54:37;;;;;;;3.72;3.42;;;5.10;99.90;;;;;;5055315;28;20206;-79
2021/01/28 04:57:11;;;;;;;4.43;3.80;;;5.00;99.90;;;;;;5050825;28;20207;-76
2021/01/28 04:59:42;;;;;;;4.63;3.42;;;5.10;99.90;;;;;;5059698;28;20191;-79
2021/01/28 05:02:15;;;;;;;3.50;3.20;;;5.10;99.90;;;;;;5050750;28;20594;-78
2021/01/28 05:04:44;;;;;;;3.25;2.95;;;5.10;99.90;;;;;;5047915;28;20647;-80
2021/01/28 05:07:14;;;;;;;4.20;3.20;;;5.10;99.90;;;;;;5052156;28;20254;-79
2021/01/28 05:09:41;;;;;;;3.53;2.90;;;5.10;99.90;;;;;;5052555;28;20199;-78
2021/01/28 05:12:08;;;;;;;3.30;3.00;;;5.10;99.90;;;;;;5051387;28;20219;-80
2021/01/28 05:14:36;;;;;;;4.40;3.25;;;5.10;99.90;;;;;;5050963;28;20338;-78
2021/01/28 05:17:05;;;;;;;3.30;3.00;;;5.00;99.90;;;;;;5055032;28;20231;-79
2021/01/28 05:19:38;;;;;;;4.40;2.90;;;5.00;99.90;;;;;;5052380;28;20710;-78
2021/01/28 05:22:13;;;;;;;3.50;3.17;;;5.00;99.90;;;;;;5058548;28;20203;-79
2021/01/28 05:24:45;;;;;;;3.15;2.85;;;5.10;99.90;;;;;;5060041;28;20190;-79
2021/01/28 05:27:26;;;;;;;3.20;2.90;;;5.10;99.90;;;;;;5057748;28;20238;-79
2021/01/28 05:29:55;;;;;;;3.40;3.10;;;5.20;99.90;;;;;;5054690;28;20191;-79
2021/01/28 05:32:37;;;;;;;4.18;3.42;;;5.20;99.90;;;;;;5053801;28;20219;-77
2021/01/28 05:35:26;;;;;;;3.10;2.80;;;5.20;99.90;;;;;;5059627;28;20191;-75
2021/01/28 05:38:06;;;;;;;2.92;2.70;;;5.30;99.90;;;;;;5058716;28;20274;-77
2021/01/28 05:40:33;;;;;;;3.78;3.17;;;5.20;99.90;;;;;;5058172;28;20218;-78
2021/01/28 05:43:01;;;;;;;4.72;3.30;;;5.20;99.90;;;;;;5057897;28;20651;-77
2021/01/28 05:45:32;;;;;;;4.50;4.00;;;5.30;99.90;;;;;;5057644;28;20229;-78
2021/01/28 05:48:24;;;;;;;3.40;3.00;;;5.20;99.90;;;;;;5055187;28;20238;-77
2021/01/28 05:51:05;;;;;;;3.50;3.20;;;5.20;99.90;;;;;;5053205;28;20195;-79
2021/01/28 05:53:32;;;;;;;3.90;3.30;;;5.20;99.90;;;;;;5038266;28;20211;-78
2021/01/28 05:55:59;;;;;;;4.00;3.30;;;5.20;99.90;;;;;;5035867;28;20226;-78
2021/01/28 05:58:35;;;;;;;3.67;3.35;;;5.20;99.90;;;;;;5028644;23;20302;-79
2021/01/28 06:01:05;;;;;;;3.90;3.28;;;5.20;99.90;;;;;;5000247;28;20223;-78
2021/01/28 06:04:06;;;;;;;4.40;3.70;;;5.20;99.90;;;;;;5020224;28;20200;-77
2021/01/28 06:07:08;;;;;;;3.60;3.08;;;5.10;99.90;;;;;;5029055;28;20670;-79
2021/01/28 06:10:06;;;;;;;3.22;2.92;;;5.10;99.90;;;;;;5010006;28;20220;-79
2021/01/28 06:13:10;;;;;;;3.08;2.80;;;5.10;99.90;;;;;;5001700;28;20208;-78
2021/01/28 06:15:49;;;;;;;3.40;3.10;;;5.10;99.90;;;;;;5006851;28;20200;-77
2021/01/28 06:18:49;;;;;;;4.22;3.47;;;5.10;99.90;;;;;;5009866;28;20232;-77
2021/01/28 06:21:50;;;;;;;4.22;3.83;;;5.10;99.90;;;;;;5006034;28;20239;-79
2021/01/28 06:24:41;;;;;;;4.10;3.70;;;5.20;99.90;;;;;;5007054;28;20200;-80
2021/01/28 06:27:27;;;;;;;3.20;2.90;;;5.10;99.90;;;;;;5007491;28;20207;-78
2021/01/28 06:30:07;;;;;;;4.00;3.60;;;5.10;99.90;;;;;;5004515;28;20416;-79
2021/01/28 06:33:08;;;;;;;4.25;3.25;;;5.10;99.90;;;;;;5001981;28;20216;-80
2021/01/28 06:36:00;;;;;;;4.20;3.30;;;5.00;99.90;;;;;;5000735;28;20223;-78
2021/01/28 06:38:45;;;;;;;4.70;4.07;;;5.00;99.90;;;;;;5000348;28;20327;-79
2021/01/28 06:41:15;;;;;;;7.78;4.30;;;5.10;99.90;;;;;;5001561;28;20228;-78
2021/01/28 06:43:50;;;;;;;8.02;4.97;;;5.10;99.90;;;;;;5013263;28;20192;-74
2021/01/28 06:46:36;;;;;;;5.63;4.13;;;5.10;99.90;;;;;;5014897;28;20188;-75
2021/01/28 06:49:14;;;;;;;5.05;4.07;;;5.10;99.90;;;;;;5016640;28;20224;-75
2021/01/28 06:51:50;;;;;;;15.63;5.20;;;5.00;99.90;;;;;;5013906;28;20209;-76
2021/01/28 06:54:24;;;;;;;7.30;4.97;;;4.90;99.90;;;;;;5014901;28;20216;-76
2021/01/28 06:57:07;;;;;;;7.80;5.57;;;4.80;99.90;;;;;;5002614;28;20216;-77
2021/01/28 06:59:45;;;;;;;9.48;4.28;;;4.80;99.90;;;;;;5002257;28;20212;-78
2021/01/28 07:02:22;;;;;;;6.63;4.93;;;4.90;99.90;;;;;;5005240;28;20220;-77
2021/01/28 07:05:02;;;;;;;8.30;4.95;;;4.90;99.90;;;;;;5014809;28;20204;-74
2021/01/28 07:07:30;;;;;;;7.82;5.40;;;5.00;99.90;;;;;;5014524;28;20271;-75
2021/01/28 07:10:02;;;;;;;5.22;4.68;;;5.00;99.90;;;;;;5015481;28;20292;-75
2021/01/28 07:12:36;;;;;;;5.85;4.50;;;5.10;99.90;;;;;;5014518;28;20434;-75
2021/01/28 07:15:04;;;;;;;6.03;4.78;;;5.20;99.90;;;;;;5015587;28;20212;-75
2021/01/28 07:17:36;;;;;;;6.18;5.10;;;5.20;99.90;;;;;;5013101;28;20289;-78
2021/01/28 07:20:06;;;;;;;6.18;5.40;;;5.20;99.90;;;;;;5011152;28;20223;-77
2021/01/28 07:22:36;;;;;;;7.43;5.75;;;5.10;99.90;;;;;;5000321;28;20260;-80
2021/01/28 07:25:26;;;;;;;6.85;5.82;;;5.00;99.90;;;;;;5004597;28;20215;-77
2021/01/28 07:27:59;;;;;;;10.60;6.95;;;5.00;99.90;;;;;;4996776;28;20228;-78
2021/01/28 07:30:41;;;;;;;11.23;6.13;;;5.00;99.90;;;;;;4995601;28;20644;-78
2021/01/28 07:33:32;;;;;;;7.70;5.90;;;5.10;99.90;;;;;;4996559;28;20208;-79
2021/01/28 07:36:01;;;;;;;15.15;9.30;;;5.10;99.90;;;;;;4996601;28;20201;-78
2021/01/28 07:38:50;;;;;;;6.40;4.75;;;5.10;99.90;;;;;;4995611;28;20260;-78
2021/01/28 07:41:23;;;;;;;5.35;4.82;;;5.20;99.90;;;;;;4997704;28;20331;-78
2021/01/28 07:43:52;;;;;;;6.78;5.00;;;5.30;99.90;;;;;;4998366;28;20299;-77
2021/01/28 07:46:34;;;;;;;8.02;5.30;;;5.30;99.90;;;;;;4996010;28;20665;-77
2021/01/28 07:49:22;;;;;;;6.05;5.10;;;5.30;99.90;;;;;;4999794;28;20319;-78
2021/01/28 07:51:52;;;;;;;6.90;4.78;;;5.40;99.90;;;;;;4991357;28;20215;-79
2021/01/28 07:54:45;;;;;;;4.40;4.00;;;5.30;99.90;;;;;;5019897;28;20211;-80
2021/01/28 07:57:12;;;;;;;4.68;4.28;;;5.30;99.90;;;;;;4999393;28;20204;-79
2021/01/28 07:59:46;;;;;;;7.85;4.20;;;5.30;99.90;;;;;;4986913;28;20209;-79
2021/01/28 08:02:23;;;;;;;5.40;3.63;;;5.20;99.90;;;;;;4994959;28;20230;-77
2021/01/28 08:04:55;;;;;;;5.75;3.70;;;5.20;99.90;;;;;;4994379;28;20236;-78
2021/01/28 08:07:26;;;;;;;7.25;5.55;;;5.20;99.90;;;;;;5001753;28;20209;-79
2021/01/28 08:09:55;;;;;;;4.75;4.28;;;5.20;99.90;;;;;;5002185;28;20584;-79
2021/01/28 08:12:28;;;;;;;8.25;5.50;;;5.30;99.90;;;;;;5003699;28;20208;-80
2021/01/28 08:14:56;;;;;;;7.60;6.10;;;5.40;99.90;;;;;;5005433;28;20211;-80
2021/01/28 08:17:28;;;;;;;9.20;6.57;;;5.50;99.90;;;;;;5004469;28;20205;-80
2021/01/28 08:20:14;;;;;;;7.95;6.20;;;5.50;99.90;;;;;;5009420;28;20231;-80
2021/01/28 08:23:01;;;;;;;7.95;5.70;;;5.50;99.90;;;;;;5005796;28;20288;-79
2021/01/28 08:25:31;;;;;;;7.22;6.18;;;5.50;99.90;;;;;;4995539;28;20734;-79
2021/01/28 08:28:08;;;;;;;7.45;5.60;;;5.60;99.90;;;;;;4993623;28;20704;-78
2021/01/28 08:30:37;;;;;;;6.22;5.63;;;5.50;99.90;;;;;;4999052;28;20207;-78
2021/01/28 08:33:05;;;;;;;8.98;5.10;;;5.60;99.90;;;;;;5004177;28;20208;-78
2021/01/28 08:35:38;;;;;;;6.85;5.65;;;5.60;99.90;;;;;;5000590;28;20208;-78
2021/01/28 08:38:14;;;;;;;6.85;4.68;;;5.70;99.90;;;;;;5001468;28;20220;-77
2021/01/28 08:40:42;;;;;;;6.75;5.80;;;5.70;99.90;;;;;;4993087;28;20259;-77
2021/01/28 08:43:13;;;;;;;8.77;6.35;;;5.80;99.90;;;;;;4997497;28;20208;-79
2021/01/28 08:45:40;;;;;;;13.13;6.88;;;5.90;99.90;;;;;;5006229;28;20212;-80
2021/01/28 08:48:10;;;;;;;8.13;5.90;;;5.80;99.90;;;;;;5011146;28;20220;-78
2021/01/28 08:50:38;;;;;;;12.68;5.78;;;5.80;99.90;;;;;;5005600;28;20296;-79
2021/01/28 08:53:07;;;;;;;6.50;5.10;;;5.90;99.90;;;;;;4999247;28;20211;-79
2021/01/28 08:55:38;;;;;;;7.90;5.70;;;5.90;99.90;;;;;;4994169;28;20208;-78
2021/01/28 08:58:12;;;;;;;9.75;5.70;;;6.00;99.90;;;;;;4992161;28;20328;-78
2021/01/28 09:00:44;;;;;;;6.40;5.35;;;6.00;99.90;;;;;;4992512;28;20240;-79
2021/01/28 09:03:15;;;;;;;8.88;5.50;;;6.00;99.90;;;;;;4996721;28;20203;-77
2021/01/28 09:05:41;;;;;;;9.13;6.20;;;6.10;99.90;;;;;;5004571;28;20220;-77
2021/01/28 09:08:24;;;;;;;5.30;4.70;;;6.10;99.90;;;;;;5005206;28;20287;-77
2021/01/28 09:10:52;;;;;;;9.32;4.90;;;6.10;99.90;;;;;;5001583;28;20215;-78
2021/01/28 09:13:21;;;;;;;4.72;4.20;;;6.20;99.90;;;;;;5002240;28;20209;-78
2021/01/28 09:15:49;;;;;;;8.48;4.20;;;6.20;99.90;;;;;;5001709;28;20251;-77
2021/01/28 09:18:23;;;;;;;5.40;4.13;;;6.30;99.90;;;;;;5008291;28;20228;-78
2021/01/28 09:20:50;;;;;;;5.50;3.90;;;6.20;99.90;;;;;;5009630;28;20197;-77
2021/01/28 09:23:19;;;;;;;5.53;2.90;;;6.20;99.90;;;;;;5013521;28;20189;-77
2021/01/28 09:25:48;;;;;;;4.80;3.55;;;6.30;99.90;;;;;;5015323;28;20239;-76
2021/01/28 09:28:23;;;;;;;7.47;3.70;;;6.40;99.90;;;;;;5001665;28;20221;-80
2021/01/28 09:30:51;;;;;;;2.88;2.40;;;6.50;99.90;;;;;;4995833;28;20240;-78
2021/01/28 09:33:34;;;;;;;1.92;1.77;;;6.70;99.90;;;;;;5007940;28;20283;-78
2021/01/28 09:36:07;;;;;;;1.50;1.20;;;6.90;99.90;;;;;;4995442;28;20213;-80
2021/01/28 09:38:33;;;;;;;2.80;1.90;;;7.10;99.90;;;;;;5010804;28;20240;-79
2021/01/28 09:41:12;;;;;;;2.00;1.25;;;7.30;99.90;;;;;;5013218;28;20232;-79
2021/01/28 09:43:40;;;;;;;1.15;0.90;;;7.40;99.90;;;;;;5000140;28;20189;-80
2021/01/28 09:46:15;;;;;;;1.10;1.00;;;7.60;99.90;;;;;;4997592;28;20194;-81
2021/01/28 09:48:41;;;;;;;1.83;1.10;;;7.70;99.90;;;;;;4998431;28;20272;-81
2021/01/28 09:51:09;;;;;;;1.42;0.90;;;7.70;99.90;;;;;;4996748;28;20201;-80
2021/01/28 09:53:36;;;;;;;4.38;0.88;;;7.80;99.90;;;;;;4997831;28;20192;-82
2021/01/28 09:56:04;;;;;;;0.90;0.90;;;7.80;99.90;;;;;;4996061;28;20209;-81
2021/01/28 09:58:30;;;;;;;1.48;1.00;;;7.80;99.90;;;;;;5012082;28;20217;-78
2021/01/28 10:00:57;;;;;;;2.22;1.27;;;7.90;99.90;;;;;;5016005;28;20267;-81
2021/01/28 10:03:24;;;;;;;4.78;1.00;;;8.00;99.90;;;;;;5014277;28;20263;-79
2021/01/28 10:05:50;;;;;;;1.95;1.13;;;8.00;99.90;;;;;;5015650;28;20282;-81
2021/01/28 10:08:18;;;;;;;1.45;0.98;;;8.10;99.90;;;;;;5011849;28;20232;-81
2021/01/28 10:10:45;;;;;;;1.90;1.33;;;8.10;99.90;;;;;;5012622;28;20236;-78
2021/01/28 10:13:14;;;;;;;1.58;1.02;;;8.10;99.90;;;;;;5012294;28;20201;-81
2021/01/28 10:15:41;;;;;;;2.00;0.93;;;8.20;99.90;;;;;;5007367;28;20193;-80
2021/01/28 10:18:09;;;;;;;1.00;0.90;;;8.20;99.90;;;;;;5011540;28;20205;-80
2021/01/28 10:20:35;;;;;;;7.60;1.42;;;8.20;99.90;;;;;;5013037;28;20192;-80
2021/01/28 10:23:03;;;;;;;1.95;1.17;;;8.20;99.90;;;;;;4996593;28;20189;-79
2021/01/28 10:25:30;;;;;;;2.75;1.35;;;8.20;99.90;;;;;;4997100;28;20201;-78
2021/01/28 10:27:56;;;;;;;1.45;0.95;;;8.30;99.90;;;;;;4995504;28;20221;-78
2021/01/28 10:30:23;;;;;;;3.45;1.40;;;8.30;99.90;;;;;;4997623;28;20193;-80
2021/01/28 10:32:51;;;;;;;2.45;0.82;;;8.30;99.90;;;;;;4989081;28;20292;-79
2021/01/28 10:35:20;;;;;;;2.08;1.15;;;8.30;99.90;;;;;;4992850;28;20245;-78
2021/01/28 10:37:47;;;;;;;1.48;1.17;;;8.30;99.90;;;;;;4996290;28;20240;-78
2021/01/28 10:40:15;;;;;;;1.40;1.13;;;8.40;99.90;;;;;;4992746;28;20229;-79
2021/01/28 10:42:43;;;;;;;1.75;1.48;;;8.40;99.90;;;;;;5004688;28;20281;-80
2021/01/28 10:45:14;;;;;;;1.60;1.02;;;8.40;99.90;;;;;;5010534;28;20209;-77
2021/01/28 10:47:41;;;;;;;2.67;1.33;;;8.50;99.90;;;;;;4995457;28;20236;-78
2021/01/28 10:50:09;;;;;;;1.13;1.05;;;8.50;99.90;;;;;;4995997;28;20193;-78
2021/01/28 10:52:36;;;;;;;1.10;1.00;;;8.50;99.90;;;;;;4994660;28;20214;-80
2021/01/28 10:55:05;;;;;;;1.50;1.20;;;8.50;99.90;;;;;;4994739;28;20212;-77
2021/01/28 10:57:31;;;;;;;1.23;1.13;;;8.50;99.90;;;;;;4996754;28;20225;-80
2021/01/28 10:59:58;;;;;;;1.20;1.10;;;8.60;99.90;;;;;;4997140;28;20210;-80
2021/01/28 11:02:24;;;;;;;6.18;1.30;;;8.60;99.90;;;;;;4995437;28;20253;-80
2021/01/28 11:04:51;;;;;;;2.90;1.30;;;8.70;99.90;;;;;;5006945;28;20205;-81
2021/01/28 11:07:17;;;;;;;1.40;1.08;;;8.80;99.90;;;;;;5007077;28;20204;-80
2021/01/28 11:09:44;;;;;;;1.05;0.93;;;8.90;99.90;;;;;;5006851;28;20212;-80
2021/01/28 11:12:11;;;;;;;1.85;1.17;;;9.10;99.90;;;;;;5010666;28;20189;-81
2021/01/28 11:14:37;;;;;;;1.08;1.05;;;9.20;99.90;;;;;;5012858;28;20201;-81
2021/01/28 11:17:04;;;;;;;1.88;0.90;;;9.20;99.90;;;;;;5011292;28;20220;-80
2021/01/28 11:19:30;;;;;;;1.98;0.93;;;9.20;99.90;;;;;;4997113;28;20273;-79
2021/01/28 11:21:56;;;;;;;0.70;0.70;;;9.30;99.90;;;;;;4999018;28;20217;-79
2021/01/28 11:24:23;;;;;;;0.63;0.63;;;9.30;99.90;;;;;;5016076;28;20212;-80
2021/01/28 11:26:50;;;;;;;2.88;0.98;;;9.30;99.90;;;;;;5014838;28;20267;-80
2021/01/28 11:29:22;;;;;;;1.73;0.88;;;9.30;99.90;;;;;;5009896;28;20248;-79
2021/01/28 11:31:48;;;;;;;6.35;1.10;;;9.30;99.90;;;;;;5011873;28;20196;-82
2021/01/28 11:34:15;;;;;;;3.53;1.20;;;9.30;99.90;;;;;;5005433;28;20725;-83
2021/01/28 11:36:41;;;;;;;0.82;0.80;;;9.40;99.90;;;;;;4989574;28;20338;-81
2021/01/28 11:39:08;;;;;;;1.35;1.00;;;9.40;99.90;;;;;;4988038;28;20225;-82
2021/01/28 11:41:35;;;;;;;1.48;0.98;;;9.50;99.90;;;;;;4985226;28;20236;-82
2021/01/28 11:44:02;;;;;;;1.65;0.80;;;9.50;99.90;;;;;;4985143;28;20209;-83
2021/01/28 11:46:29;;;;;;;1.85;0.80;;;9.50;99.90;;;;;;4988511;28;20205;-83
2021/01/28 11:48:56;;;;;;;0.90;0.52;;;9.50;99.90;;;;;;4985562;28;20229;-85
2021/01/28 11:51:22;;;;;;;1.10;1.10;;;9.50;99.90;;;;;;4989384;28;20198;-88
2021/01/28 11:53:49;;;;;;;1.10;1.00;;;9.50;99.90;;;;;;5001242;28;20260;-89
2021/01/28 11:56:17;;;;;;;1.92;1.13;;;9.50;99.90;;;;;;5015439;28;20207;-89
2021/01/28 11:58:43;;;;;;;1.75;0.95;;;9.50;99.90;;;;;;5037718;23;20251;-78
2021/01/28 12:01:11;;;;;;;1.38;1.08;;;9.50;99.90;;;;;;5069768;28;20293;-77
2021/01/28 12:03:38;;;;;;;2.10;0.93;;;9.70;99.90;;;;;;5075416;28;20230;-76
2021/01/28 12:06:04;;;;;;;1.05;0.80;;;9.70;99.90;;;;;;5051174;28;20199;-79
2021/01/28 12:08:31;;;;;;;0.80;0.60;;;9.70;99.90;;;;;;5044832;28;20258;-78
2021/01/28 12:10:58;;;;;;;0.75;0.73;;;9.70;99.90;;;;;;5040667;28;20246;-81
2021/01/28 12:13:24;;;;;;;1.05;0.90;;;9.70;99.90;;;;;;5038174;28;20218;-79
2021/01/28 12:15:51;;;;;;;1.90;1.20;;;9.70;99.90;;;;;;5056172;28;20202;-80
2021/01/28 12:18:19;;;;;;;2.80;1.30;;;9.70;99.90;;;;;;5075840;28;20218;-81
2021/01/28 12:20:45;;;;;;;0.70;0.70;;;9.70;99.90;;;;;;5072352;28;20213;-80
2021/01/28 12:23:13;;;;;;;1.63;0.77;;;9.70;99.90;;;;;;5064108;28;20210;-81
2021/01/28 12:25:40;;;;;;;1.38;0.90;;;9.80;99.90;;;;;;5061413;28;20243;-81
2021/01/28 12:28:07;;;;;;;1.08;0.90;;;9.80;99.90;;;;;;5046494;28;20299;-80
2021/01/28 12:30:33;;;;;;;0.90;0.90;;;9.80;99.90;;;;;;5019432;28;20220;-80
2021/01/28 12:33:00;;;;;;;1.52;1.00;;;9.80;99.90;;;;;;5020145;28;20196;-80
2021/01/28 12:35:27;;;;;;;1.10;1.00;;;9.80;99.90;;;;;;5021773;28;20613;-80
2021/01/28 12:37:54;;;;;;;0.90;0.90;;;9.80;99.90;;;;;;5026463;28;20225;-81
2021/01/28 12:40:21;;;;;;;2.60;1.00;;;9.90;99.90;;;;;;5038128;28;20203;-80
2021/01/28 12:42:48;;;;;;;2.38;1.10;;;9.90;99.90;;;;;;5036301;28;20789;-79
2021/01/28 12:45:15;;;;;;;1.10;1.00;;;10.00;99.90;;;;;;5037671;28;20290;-79
2021/01/28 12:47:42;;;;;;;1.20;1.10;;;10.00;99.90;;;;;;5040286;28;20211;-78
2021/01/28 12:50:11;;;;;;;1.92;1.40;;;10.00;99.90;;;;;;5038163;28;20230;-80
2021/01/28 12:52:39;;;;;;;1.27;1.00;;;10.10;99.90;;;;;;5022896;28;20228;-80
2021/01/28 12:55:08;;;;;;;1.27;1.17;;;10.10;99.90;;;;;;5023043;28;20375;-79
2021/01/28 12:57:35;;;;;;;1.75;1.13;;;10.10;99.90;;;;;;5023578;28;20235;-80
2021/01/28 13:00:01;;;;;;;1.10;1.10;;;10.10;99.90;;;;;;5023952;28;20227;-79
2021/01/28 13:02:27;;;;;;;1.33;1.13;;;10.10;99.90;;;;;;5021227;28;20258;-79
2021/01/28 13:04:54;;;;;;;2.05;1.85;;;10.10;99.90;;;;;;5022788;28;20228;-79
2021/01/28 13:07:20;;;;;;;1.30;1.30;;;10.10;99.90;;;;;;5023619;28;20212;-78
2021/01/28 13:09:48;;;;;;;4.90;2.08;;;10.10;99.90;;;;;;5034766;28;20231;-80
2021/01/28 13:12:14;;;;;;;1.50;1.40;;;10.10;99.90;;;;;;5042791;28;20279;-81